Ansley, Nebraska
Current Conditions -  °F | °C
As of 5:53 PM on Saturday 25 Oct 2014 (Local Time) from KBBW Reporting Station
Clear Clear  
Wind Chill: 70°   Ceiling: Unl
Heat Index: 70°   Visibility: 10mi
Dew Point: 46°   Wind: 10mph
Humidity: 42%   Direction: 120°ESE
Pressure: 30.02"   Gusts: NA
Location:  41.29°N, 99.38°W
Report Text: KBBW 252253Z AUTO 12009KT 10SM CLR 21/08 A3002 RMK AO2 SLP157 T02110078
Loading
Personal Weather Stations






























Interactive Weather Map
Tropical Storm Tracking
New forecast layout! Learn more

10-Day Weather Forecast

Advertisements
Track Severe Weather on mobile